Time;durP1;ratioP1;P1;durP2;ratioP2;P2;SDS_P1;SDS_P2;PMS_P1;PMS_P2;Temp;Humidity;BMP_temperature;BMP_pressure;BME280_temperature;BME280_humidity;BME280_pressure;Samples;Min_cycle;Max_cycle;Signal;HPM_P1;HPM_P2
2022/04/16 00:00:18;;;;;;;2.42;1.70;;;;;;;6.98;nan;101648.88;5004906;28;20042;-73
2022/04/16 00:02:47;;;;;;;2.78;1.90;;;;;;;6.95;nan;101651.72;5007990;28;20096;-74
2022/04/16 00:05:13;;;;;;;3.67;1.90;;;;;;;6.91;nan;101653.72;5008139;28;20033;-73
2022/04/16 00:07:39;;;;;;;2.78;1.85;;;;;;;6.87;nan;101649.59;5010455;28;20038;-73
2022/04/16 00:10:05;;;;;;;2.53;1.80;;;;;;;6.83;nan;101645.47;5011481;28;20490;-73
2022/04/16 00:12:30;;;;;;;2.67;1.60;;;;;;;6.80;nan;101643.03;5010561;28;20029;-73
2022/04/16 00:14:56;;;;;;;1.95;1.30;;;;;;;6.80;nan;101645.66;5010782;28;20509;-73
2022/04/16 00:17:21;;;;;;;2.30;1.70;;;;;;;6.78;nan;101643.13;5009050;28;20041;-73
2022/04/16 00:19:47;;;;;;;2.03;1.50;;;;;;;6.76;nan;101642.38;5006960;28;20072;-73
2022/04/16 00:22:12;;;;;;;2.20;1.60;;;;;;;6.72;nan;101638.28;5007451;28;20402;-73
2022/04/16 00:24:42;;;;;;;2.17;1.65;;;;;;;6.72;nan;101638.28;5009475;28;20037;-73
2022/04/16 00:27:09;;;;;;;1.63;1.50;;;;;;;6.69;nan;101635.84;5008775;28;20092;-74
2022/04/16 00:29:36;;;;;;;2.55;1.70;;;;;;;6.65;nan;101639.63;5005009;28;20067;-73
2022/04/16 00:32:02;;;;;;;2.47;1.65;;;;;;;6.64;nan;101637.09;4990107;28;20053;-73
2022/04/16 00:34:28;;;;;;;2.90;2.20;;;;;;;6.66;nan;101637.84;5006731;28;20042;-73
2022/04/16 00:36:53;;;;;;;2.70;1.90;;;;;;;6.71;nan;101633.13;5008950;28;20038;-74
2022/04/16 00:39:18;;;;;;;2.70;1.80;;;;;;;6.74;nan;101636.38;5008211;28;20052;-73
2022/04/16 00:41:44;;;;;;;2.65;1.90;;;;;;;6.78;nan;101648.38;5008007;28;20042;-73
2022/04/16 00:44:09;;;;;;;2.47;1.75;;;;;;;6.82;nan;101646.41;5006060;28;20388;-73
2022/04/16 00:46:36;;;;;;;2.30;1.70;;;;;;;6.81;nan;101648.19;5005997;28;20273;-73
2022/04/16 00:49:02;;;;;;;2.65;1.67;;;;;;;6.85;nan;101650.63;5007571;28;20557;-73
2022/04/16 00:51:28;;;;;;;1.90;1.60;;;;;;;6.85;nan;101645.38;5007591;28;20034;-73
2022/04/16 00:53:54;;;;;;;1.88;1.50;;;;;;;6.81;nan;101644.72;5008070;28;20030;-74
2022/04/16 00:56:19;;;;;;;2.13;1.60;;;;;;;6.76;nan;101652.06;5004707;28;20454;-73
2022/04/16 00:58:44;;;;;;;2.40;1.63;;;;;;;6.73;nan;101661.00;5008230;28;20534;-73
2022/04/16 01:01:10;;;;;;;2.75;1.80;;;;;;;6.82;nan;101659.56;5006802;28;20045;-73
2022/04/16 01:03:36;;;;;;;3.45;2.03;;;;;;;6.87;nan;101657.47;5006802;28;20061;-73
2022/04/16 01:06:01;;;;;;;3.95;1.90;;;;;;;6.90;nan;101661.69;5008305;28;20407;-73
2022/04/16 01:08:27;;;;;;;4.07;2.42;;;;;;;6.94;nan;101665.81;5007233;28;20049;-73
2022/04/16 01:10:52;;;;;;;3.28;2.03;;;;;;;6.97;nan;101669.06;5008452;28;20087;-74
2022/04/16 01:13:18;;;;;;;3.05;2.10;;;;;;;6.93;nan;101678.09;5006660;28;20449;-74
2022/04/16 01:15:47;;;;;;;2.40;1.90;;;;;;;6.81;nan;101668.38;5006254;28;20088;-73
2022/04/16 01:18:12;;;;;;;3.05;2.20;;;;;;;6.67;nan;101666.63;5005405;28;20034;-73
2022/04/16 01:20:39;;;;;;;3.00;2.30;;;;;;;6.56;nan;101658.59;5007194;28;20042;-73
2022/04/16 01:23:06;;;;;;;3.17;2.40;;;;;;;6.45;nan;101664.53;5007757;28;20053;-73
2022/04/16 01:25:33;;;;;;;2.97;2.25;;;;;;;6.37;nan;101664.19;5007165;28;20513;-73
2022/04/16 01:28:01;;;;;;;2.85;2.13;;;;;;;6.29;nan;101658.56;5006718;28;20391;-73
2022/04/16 01:30:26;;;;;;;2.95;2.42;;;;;;;6.24;nan;101656.22;5006940;28;20049;-73
2022/04/16 01:32:52;;;;;;;2.78;2.30;;;;;;;6.19;nan;101654.81;5008711;28;20037;-73
2022/04/16 01:35:18;;;;;;;3.08;2.30;;;;;;;6.15;nan;101657.66;5006512;28;20392;-73
2022/04/16 01:37:43;;;;;;;2.65;2.10;;;;;;;6.12;nan;101663.06;5007095;28;20049;-73
2022/04/16 01:40:11;;;;;;;3.20;1.98;;;;;;;6.15;nan;101659.44;5007561;28;20038;-73
2022/04/16 01:42:37;;;;;;;3.30;2.50;;;;;;;6.34;nan;101662.59;5006107;28;20936;-73
2022/04/16 01:45:09;;;;;;;3.33;2.55;;;;;;;6.51;nan;101664.16;4990344;28;20451;-73
2022/04/16 01:47:36;;;;;;;3.15;2.22;;;;;;;6.66;nan;101662.31;5007277;28;20535;-73
2022/04/16 01:50:04;;;;;;;3.30;2.58;;;;;;;6.75;nan;101661.75;5010654;28;20161;-73
2022/04/16 01:52:29;;;;;;;3.22;2.38;;;;;;;6.82;nan;101662.19;5007817;28;20454;-73
2022/04/16 01:54:54;;;;;;;3.72;2.40;;;;;;;6.87;nan;101660.09;5011516;28;20269;-73
2022/04/16 01:57:20;;;;;;;3.58;2.15;;;;;;;6.89;nan;101668.75;5009137;28;20038;-73
2022/04/16 01:59:46;;;;;;;2.65;2.15;;;;;;;6.95;nan;101667.47;5008312;28;20034;-73
2022/04/16 02:02:12;;;;;;;6.93;2.45;;;;;;;7.02;nan;101671.41;5010310;28;20044;-74
2022/04/16 02:04:38;;;;;;;3.28;2.33;;;;;;;7.10;nan;101678.78;5008598;28;20033;-74
2022/04/16 02:07:03;;;;;;;2.92;2.20;;;;;;;7.16;nan;101675.75;5004204;28;20415;-74
2022/04/16 02:09:28;;;;;;;3.47;2.28;;;;;;;7.22;nan;101664.81;5007265;28;20312;-73
2022/04/16 02:11:54;;;;;;;4.55;2.70;;;;;;;7.29;nan;101660.81;5008394;28;20080;-73
2022/04/16 02:14:21;;;;;;;4.20;2.60;;;;;;;7.35;nan;101659.59;5007417;28;20092;-73
2022/04/16 02:16:47;;;;;;;3.33;2.22;;;;;;;7.44;nan;101649.28;5006779;28;20018;-73
2022/04/16 02:19:14;;;;;;;3.42;2.63;;;;;;;7.58;nan;101658.88;5007710;28;20088;-74
2022/04/16 02:21:39;;;;;;;3.15;2.30;;;;;;;7.70;nan;101664.22;5004270;28;20116;-73
2022/04/16 02:24:06;;;;;;;3.40;2.42;;;;;;;7.79;nan;101663.59;5007407;28;20109;-73
2022/04/16 02:26:32;;;;;;;3.40;2.33;;;;;;;7.84;nan;101664.13;5007450;28;20734;-73
2022/04/16 02:28:59;;;;;;;2.95;2.20;;;;;;;7.82;nan;101664.25;4994235;28;20112;-74
2022/04/16 02:31:25;;;;;;;3.30;2.40;;;;;;;7.85;nan;101669.31;5009386;28;20030;-74
2022/04/16 02:33:50;;;;;;;3.63;2.08;;;;;;;7.88;nan;101666.44;5010975;28;20519;-73
2022/04/16 02:36:16;;;;;;;3.85;2.65;;;;;;;7.94;nan;101662.56;5011351;28;20109;-73
2022/04/16 02:38:41;;;;;;;4.07;2.40;;;;;;;7.98;nan;101650.00;5004194;28;20037;-74
2022/04/16 02:41:07;;;;;;;3.08;2.22;;;;;;;7.97;nan;101651.81;5003282;28;20491;-74
2022/04/16 02:43:32;;;;;;;3.63;2.55;;;;;;;7.98;nan;101650.00;4987235;28;20434;-74
2022/04/16 02:48:41;;;;;;;3.58;2.33;;;;;;;7.90;nan;101645.28;5004903;28;20061;-74
2022/04/16 02:51:08;;;;;;;3.38;2.38;;;;;;;7.87;nan;101653.41;5005763;28;20463;-73
2022/04/16 02:53:33;;;;;;;2.85;2.40;;;;;;;7.82;nan;101656.34;5005784;28;20125;-73
2022/04/16 02:55:58;;;;;;;2.47;1.90;;;;;;;7.78;nan;101659.31;5009954;28;20118;-73
2022/04/16 02:58:24;;;;;;;3.08;2.13;;;;;;;7.78;nan;101654.88;5006146;28;20097;-73
2022/04/16 03:00:49;;;;;;;3.63;2.13;;;;;;;7.79;nan;101653.91;5009908;28;20042;-73
2022/04/16 03:03:15;;;;;;;3.08;2.00;;;;;;;7.78;nan;101654.03;5009955;28;20045;-73
2022/04/16 03:05:41;;;;;;;3.17;2.15;;;;;;;7.81;nan;101652.03;5008873;28;20037;-73
2022/04/16 03:08:07;;;;;;;2.78;2.03;;;;;;;7.82;nan;101658.16;5008880;28;20026;-73
2022/04/16 03:10:33;;;;;;;2.80;2.00;;;;;;;7.84;nan;101661.50;5009223;28;20395;-73
2022/04/16 03:12:58;;;;;;;2.92;1.98;;;;;;;7.85;nan;101668.47;5009836;28;20188;-73
2022/04/16 03:18:09;;;;;;;3.42;2.33;;;;;;;7.97;nan;101659.72;5006878;28;20084;-72
2022/04/16 03:20:37;;;;;;;3.50;2.45;;;;;;;8.01;nan;101658.56;5006323;28;20094;-72
2022/04/16 03:23:03;;;;;;;3.20;2.38;;;;;;;8.08;nan;101661.59;5009174;28;20034;-72
2022/04/16 03:25:29;;;;;;;3.83;2.70;;;;;;;8.15;nan;101659.34;5009012;28;20026;-72
2022/04/16 03:27:55;;;;;;;3.60;2.33;;;;;;;8.17;nan;101654.81;5009676;28;20034;-72
2022/04/16 03:30:23;;;;;;;3.58;2.70;;;;;;;8.21;nan;101670.31;5009409;28;20038;-72
2022/04/16 03:32:49;;;;;;;3.78;2.97;;;;;;;8.27;nan;101672.53;5008929;28;20121;-72
2022/04/16 03:35:17;;;;;;;4.35;3.03;;;;;;;8.29;nan;101667.13;5009019;28;20034;-72
2022/04/16 03:37:43;;;;;;;3.65;2.47;;;;;;;8.33;nan;101668.59;5008844;28;20321;-72
2022/04/16 03:40:09;;;;;;;3.80;2.70;;;;;;;8.35;nan;101661.44;5009420;28;20399;-72
2022/04/16 03:42:34;;;;;;;4.15;2.70;;;;;;;8.35;nan;101656.16;5008820;28;20034;-72
2022/04/16 03:45:00;;;;;;;5.05;3.13;;;;;;;8.35;nan;101656.16;5009539;28;20294;-72
2022/04/16 03:47:27;;;;;;;4.03;2.85;;;;;;;8.31;nan;101662.59;5009007;28;20038;-72
2022/04/16 03:49:53;;;;;;;5.20;3.13;;;;;;;8.35;nan;101665.88;5009255;28;20062;-72
2022/04/16 03:52:18;;;;;;;3.55;2.70;;;;;;;8.34;nan;101656.25;4991010;28;20068;-72
2022/04/16 04:00:12;;;;;;;4.10;2.72;;;;;;;8.36;nan;101662.28;5009055;28;20517;-73
2022/04/16 04:02:39;;;;;;;3.92;2.95;;;;;;;8.42;nan;101667.16;5005630;28;20033;-72
2022/04/16 04:05:06;;;;;;;3.80;2.80;;;;;;;8.46;nan;101663.31;5009371;28;20119;-72
2022/04/16 04:07:32;;;;;;;3.50;2.50;;;;;;;8.44;nan;101665.25;5008053;28;20426;-72
2022/04/16 04:09:57;;;;;;;3.65;2.78;;;;;;;8.44;nan;101665.25;5007638;28;20049;-72
2022/04/16 04:12:22;;;;;;;4.75;3.30;;;;;;;8.42;nan;101667.16;5007743;28;20155;-72
2022/04/16 04:14:48;;;;;;;3.25;2.67;;;;;;;8.45;nan;101674.81;5008374;28;20053;-72
2022/04/16 04:17:14;;;;;;;3.55;2.60;;;;;;;8.50;nan;101680.59;5006976;28;20066;-72
2022/04/16 04:19:41;;;;;;;5.03;3.03;;;;;;;8.52;nan;101683.97;5005256;28;20445;-72
2022/04/16 04:22:09;;;;;;;4.10;2.90;;;;;;;8.58;nan;101678.28;5007770;28;20088;-72
2022/04/16 04:24:37;;;;;;;4.15;2.75;;;;;;;8.61;nan;101666.66;5007167;28;20057;-72
2022/04/16 04:27:02;;;;;;;3.90;2.80;;;;;;;8.64;nan;101674.34;5011759;28;20117;-72
2022/04/16 04:29:28;;;;;;;3.92;3.00;;;;;;;8.65;nan;101683.94;5010888;28;20054;-72
2022/04/16 04:31:54;;;;;;;3.30;2.40;;;;;;;8.65;nan;101683.94;5010118;28;20088;-72
2022/04/16 04:34:20;;;;;;;6.03;3.33;;;;;;;8.70;nan;101679.19;5008495;28;20022;-72
2022/04/16 04:36:45;;;;;;;4.32;3.00;;;;;;;8.74;nan;101685.91;5007788;28;20046;-72
2022/04/16 04:39:11;;;;;;;4.15;3.10;;;;;;;8.70;nan;101682.66;5009222;28;20092;-72
2022/04/16 04:41:36;;;;;;;4.30;2.97;;;;;;;8.77;nan;101682.19;5009413;28;20161;-72
2022/04/16 04:44:01;;;;;;;3.58;2.80;;;;;;;8.79;nan;101685.56;5009431;28;20044;-72
2022/04/16 04:46:27;;;;;;;4.15;3.08;;;;;;;8.81;nan;101688.94;5008559;28;20061;-72
2022/04/16 04:48:52;;;;;;;4.88;3.28;;;;;;;8.86;nan;101694.72;4992603;28;20034;-72
2022/04/16 04:51:17;;;;;;;5.53;3.50;;;;;;;8.92;nan;101691.66;5010443;28;20038;-72
2022/04/16 04:53:43;;;;;;;6.00;3.50;;;;;;;8.93;nan;101691.50;5010770;28;20453;-72
2022/04/16 04:56:08;;;;;;;4.35;3.30;;;;;;;8.99;nan;101684.97;5010397;28;20044;-72
2022/04/16 04:58:33;;;;;;;3.97;3.10;;;;;;;9.01;nan;101690.97;4991831;28;20045;-72
2022/04/16 05:00:59;;;;;;;4.22;3.30;;;;;;;9.01;nan;101696.25;5005776;28;20384;-72
2022/04/16 05:03:24;;;;;;;4.38;3.05;;;;;;;9.01;nan;101701.53;5007711;28;20088;-72
2022/04/16 05:05:49;;;;;;;3.70;2.97;;;;;;;8.98;nan;101696.47;5007575;28;20076;-72
2022/04/16 05:08:15;;;;;;;4.88;3.20;;;;;;;9.06;nan;101703.84;5008164;28;20509;-73
2022/04/16 05:10:41;;;;;;;4.55;3.50;;;;;;;9.09;nan;101714.16;5007155;28;20041;-72
2022/04/16 05:13:06;;;;;;;3.83;3.20;;;;;;;9.13;nan;101711.19;5009541;28;20430;-72
2022/04/16 05:15:32;;;;;;;4.35;3.33;;;;;;;9.18;nan;101717.91;5010329;28;20041;-73
2022/04/16 05:17:57;;;;;;;4.60;3.05;;;;;;;9.22;nan;101712.28;5009116;28;20407;-73
2022/04/16 05:20:22;;;;;;;4.78;3.38;;;;;;;9.27;nan;101714.56;5006415;28;20127;-72
2022/04/16 05:22:48;;;;;;;4.78;3.20;;;;;;;9.31;nan;101710.75;5008305;28;20495;-72
2022/04/16 05:25:13;;;;;;;5.00;3.30;;;;;;;9.28;nan;101713.63;5007879;28;20041;-72
2022/04/16 05:27:39;;;;;;;5.05;3.00;;;;;;;9.33;nan;101717.59;5007455;28;20731;-72
2022/04/16 05:32:37;;;;;;;4.45;3.47;;;;;;;9.39;nan;101721.59;5006721;28;20526;-72
2022/04/16 05:35:04;;;;;;;4.13;3.20;;;;;;;9.34;nan;101731.63;5006775;28;20036;-73
2022/04/16 05:37:29;;;;;;;5.57;3.75;;;;;;;9.37;nan;101723.50;5006496;28;20041;-72
2022/04/16 05:39:55;;;;;;;4.72;2.92;;;;;;;9.45;nan;101726.41;5006131;28;20501;-72
2022/04/16 05:42:20;;;;;;;4.45;3.22;;;;;;;9.47;nan;101737.69;5007611;28;20034;-72
2022/04/16 05:44:45;;;;;;;4.70;3.40;;;;;;;9.59;nan;101735.09;5002863;28;20125;-72
2022/04/16 05:47:11;;;;;;;4.32;3.20;;;;;;;9.61;nan;101735.84;5006084;28;20041;-72
2022/04/16 05:49:36;;;;;;;4.40;3.38;;;;;;;9.67;nan;101745.91;5007393;28;20041;-72
2022/04/16 05:52:01;;;;;;;4.65;3.10;;;;;;;9.73;nan;101740.19;5006872;28;20399;-72
2022/04/16 05:54:27;;;;;;;5.47;3.50;;;;;;;9.84;nan;101747.28;5006927;28;20053;-73
2022/04/16 05:56:53;;;;;;;4.93;3.30;;;;;;;9.88;nan;101751.38;5006104;28;20311;-72
2022/04/16 05:59:19;;;;;;;4.60;3.17;;;;;;;9.97;nan;101746.22;5007220;28;20052;-72
2022/04/16 06:01:45;;;;;;;5.35;3.33;;;;;;;10.02;nan;101745.88;5005735;28;20034;-72
2022/04/16 06:04:11;;;;;;;4.70;3.30;;;;;;;10.07;nan;101753.44;4989259;28;20401;-73
2022/04/16 06:06:36;;;;;;;3.63;2.75;;;;;;;10.13;nan;101753.81;5007691;28;20034;-72
2022/04/16 06:09:01;;;;;;;3.83;3.00;;;;;;;10.20;nan;101752.38;5007843;28;20033;-72
2022/04/16 06:11:28;;;;;;;3.63;2.90;;;;;;;10.39;nan;101764.19;5008474;28;20078;-72
2022/04/16 06:13:53;;;;;;;4.78;3.50;;;;;;;10.49;nan;101759.03;5008097;28;20068;-72
2022/04/16 06:16:19;;;;;;;4.20;3.08;;;;;;;10.56;nan;101768.16;5007152;28;20230;-72
2022/04/16 06:18:44;;;;;;;4.85;2.83;;;;;;;10.61;nan;101766.84;5007193;28;20061;-72
2022/04/16 06:21:09;;;;;;;4.50;3.33;;;;;;;10.70;nan;101773.22;5006350;28;20038;-73
2022/04/16 06:23:35;;;;;;;4.63;2.90;;;;;;;10.82;nan;101768.72;5006932;28;20026;-73
2022/04/16 06:26:00;;;;;;;3.67;2.80;;;;;;;10.84;nan;101775.59;5007415;28;20569;-72
2022/04/16 06:28:25;;;;;;;3.97;2.67;;;;;;;11.07;nan;101772.06;4990210;28;20117;-73
2022/04/16 06:30:51;;;;;;;3.97;2.60;;;;;;;11.17;nan;101779.09;5006271;28;20446;-72
2022/04/16 06:33:16;;;;;;;4.03;2.70;;;;;;;11.19;nan;101774.53;5006681;28;20499;-73
2022/04/16 06:35:42;;;;;;;4.10;2.50;;;;;;;11.33;nan;101775.22;4987370;28;20041;-73
2022/04/16 06:38:07;;;;;;;3.53;2.40;;;;;;;11.48;nan;101782.72;5006288;28;20058;-73
2022/04/16 06:40:33;;;;;;;3.40;2.47;;;;;;;11.60;nan;101780.03;5007119;28;20034;-73
2022/04/16 06:42:58;;;;;;;3.22;2.50;;;;;;;11.66;nan;101782.19;5006001;28;20510;-73
2022/04/16 06:45:23;;;;;;;3.97;2.90;;;;;;;11.70;nan;101783.59;5006727;28;20121;-73
2022/04/16 06:47:49;;;;;;;3.00;2.20;;;;;;;11.74;nan;101785.03;5006590;28;20482;-73
2022/04/16 06:50:14;;;;;;;4.32;2.60;;;;;;;11.90;nan;101785.44;5006154;28;20502;-73
2022/04/16 06:52:39;;;;;;;4.20;2.30;;;;;;;11.83;nan;101789.56;5001335;28;20040;-73
2022/04/16 06:55:06;;;;;;;3.85;2.90;;;;;;;11.78;nan;101788.28;5007278;28;20034;-73
2022/04/16 06:57:31;;;;;;;3.83;2.70;;;;;;;11.97;nan;101795.53;4989883;28;20029;-73
2022/04/16 06:59:56;;;;;;;3.83;2.70;;;;;;;12.15;nan;101803.72;4989230;28;20407;-73
2022/04/16 07:02:22;;;;;;;3.70;2.08;;;;;;;12.14;nan;101802.06;5006919;28;20042;-73
2022/04/16 07:04:47;;;;;;;4.20;2.53;;;;;;;12.32;nan;101795.16;5006431;28;20044;-73
2022/04/16 07:07:12;;;;;;;3.10;2.05;;;;;;;12.51;nan;101799.72;5004729;28;20042;-73
2022/04/16 07:09:38;;;;;;;3.58;2.20;;;;;;;12.81;nan;101804.16;5006674;28;20038;-73
2022/04/16 07:12:11;;;;;;;3.63;2.30;;;;;;;13.06;nan;101804.66;5006106;28;20470;-73
2022/04/16 07:14:37;;;;;;;4.07;2.30;;;;;;;13.23;nan;101801.34;5009151;28;20038;-73
2022/04/16 07:17:03;;;;;;;3.75;2.50;;;;;;;13.05;nan;101805.63;5006070;28;20041;-73
2022/04/16 07:19:29;;;;;;;3.58;2.58;;;;;;;13.10;nan;101809.56;5011473;28;20217;-73
2022/04/16 07:21:55;;;;;;;4.75;2.10;;;;;;;12.85;nan;101810.06;5011378;28;20034;-73
2022/04/16 07:24:21;;;;;;;3.00;1.90;;;;;;;13.02;nan;101805.91;5011966;28;20038;-73
2022/04/16 07:26:47;;;;;;;2.65;1.95;;;;;;;13.59;nan;101805.16;5012645;28;20030;-73
2022/04/16 07:29:13;;;;;;;2.90;2.08;;;;;;;13.92;nan;101818.13;5012874;28;20057;-73
2022/04/16 07:31:38;;;;;;;3.03;1.88;;;;;;;13.75;nan;101817.91;5011514;28;20073;-73
2022/04/16 07:34:04;;;;;;;2.85;2.10;;;;;;;13.68;nan;101816.78;5010691;28;20060;-73
2022/04/16 07:36:29;;;;;;;2.78;2.10;;;;;;;13.40;nan;101818.44;5010369;28;20108;-73
2022/04/16 07:38:54;;;;;;;3.45;2.28;;;;;;;13.46;nan;101815.22;5010262;28;20061;-73
2022/04/16 07:41:20;;;;;;;4.18;2.08;;;;;;;13.40;nan;101814.97;5010769;28;20048;-73
2022/04/16 07:43:45;;;;;;;3.15;2.22;;;;;;;13.40;nan;101825.59;5008292;28;20026;-73
2022/04/16 07:46:10;;;;;;;2.97;2.25;;;;;;;13.32;nan;101805.00;5009500;28;20033;-73
2022/04/16 07:48:37;;;;;;;3.60;1.98;;;;;;;13.25;nan;101825.09;5010854;28;20172;-73
2022/04/16 07:51:04;;;;;;;2.75;1.88;;;;;;;14.04;nan;101817.03;5009134;28;20034;-73
2022/04/16 07:53:29;;;;;;;2.95;2.03;;;;;;;14.93;nan;101816.59;5011689;28;20034;-73
2022/04/16 07:55:54;;;;;;;3.33;2.00;;;;;;;15.54;nan;101820.41;5008416;28;20034;-73
2022/04/16 07:58:20;;;;;;;2.70;1.88;;;;;;;15.64;nan;101820.31;5009046;28;20085;-73
2022/04/16 08:00:45;;;;;;;2.95;2.17;;;;;;;15.75;nan;101813.91;5012050;28;20550;-73
2022/04/16 08:03:10;;;;;;;2.85;2.00;;;;;;;15.76;nan;101819.09;5010018;28;20096;-73
2022/04/16 08:05:36;;;;;;;2.60;1.80;;;;;;;15.32;nan;101816.31;5009236;28;20084;-73
2022/04/16 08:08:02;;;;;;;2.40;1.90;;;;;;;15.57;nan;101822.75;5010244;28;20124;-73
2022/04/16 08:10:27;;;;;;;2.40;1.75;;;;;;;16.03;nan;101827.97;5009174;28;20034;-74
2022/04/16 08:12:53;;;;;;;2.28;1.63;;;;;;;16.68;nan;101832.84;5008305;28;20040;-73
2022/04/16 08:15:18;;;;;;;2.20;1.70;;;;;;;17.23;nan;101832.41;5010185;28;20092;-73
2022/04/16 08:17:43;;;;;;;2.45;1.67;;;;;;;17.42;nan;101836.63;5009405;28;20057;-73
2022/04/16 08:20:10;;;;;;;2.92;1.80;;;;;;;17.87;nan;101824.66;5009333;28;20060;-73
2022/04/16 08:22:35;;;;;;;2.00;1.45;;;;;;;18.25;nan;101820.41;5009565;28;20058;-73
2022/04/16 08:27:47;;;;;;;2.63;1.70;;;;;;;18.97;nan;101821.38;5007823;28;20141;-74
2022/04/16 08:30:16;;;;;;;2.33;1.42;;;;;;;19.13;nan;101821.28;5007142;28;20554;-73
2022/04/16 08:32:42;;;;;;;2.17;1.50;;;;;;;18.96;nan;101841.16;5008122;28;20277;-73
2022/04/16 08:35:09;;;;;;;3.15;1.40;;;;;;;18.57;nan;101840.09;5008243;28;20125;-73
2022/04/16 08:37:35;;;;;;;2.00;1.52;;;;;;;18.75;nan;101829.13;5009089;28;20410;-74
2022/04/16 08:40:00;;;;;;;2.10;1.60;;;;;;;18.29;nan;101839.66;4990095;28;20050;-73
2022/04/16 08:42:26;;;;;;;2.33;1.63;;;;;;;18.17;nan;101841.88;5007466;28;20040;-74
2022/04/16 08:44:51;;;;;;;2.50;1.90;;;;;;;17.99;nan;101841.19;5007461;28;20065;-73
2022/04/16 08:47:17;;;;;;;2.15;1.40;;;;;;;17.07;nan;101846.59;5008276;28;20128;-73
2022/04/16 08:49:44;;;;;;;2.25;1.52;;;;;;;16.89;nan;101845.84;5007124;28;20026;-73
2022/04/16 08:52:10;;;;;;;2.40;1.58;;;;;;;17.63;nan;101841.50;5005737;28;20495;-73
2022/04/16 08:54:37;;;;;;;1.92;1.30;;;;;;;18.25;nan;101846.34;5008128;28;20046;-73
2022/04/16 08:57:02;;;;;;;1.77;1.30;;;;;;;18.00;nan;101837.53;5010301;28;20498;-73
2022/04/16 08:59:28;;;;;;;2.00;1.40;;;;;;;17.62;nan;101842.53;5008251;28;20042;-73
2022/04/16 09:01:53;;;;;;;2.20;1.40;;;;;;;17.06;nan;101847.56;5006824;28;20445;-73
2022/04/16 09:04:20;;;;;;;1.80;1.42;;;;;;;16.69;nan;101853.25;5007346;28;20120;-73
2022/04/16 09:07:00;;;;;;;2.45;1.33;;;;;;;16.50;nan;101851.66;5010305;28;20110;-73
2022/04/16 09:09:26;;;;;;;2.13;1.50;;;;;;;16.35;nan;101852.22;5010922;28;20569;-73
2022/04/16 09:11:52;;;;;;;3.25;1.58;;;;;;;16.11;nan;101850.22;5006650;28;20533;-73
2022/04/16 09:14:18;;;;;;;2.40;1.60;;;;;;;15.81;nan;101851.47;5007597;28;20038;-73
2022/04/16 09:16:43;;;;;;;3.22;2.10;;;;;;;15.59;nan;101857.22;4992624;28;20541;-73
2022/04/16 09:19:16;;;;;;;3.97;1.80;;;;;;;15.30;nan;101842.28;5004660;28;20045;-73
2022/04/16 09:21:43;;;;;;;2.75;2.00;;;;;;;16.14;nan;101849.91;5009031;28;20377;-73
2022/04/16 09:24:08;;;;;;;4.05;1.88;;;;;;;17.67;nan;101863.44;5008361;28;20091;-74
2022/04/16 09:26:35;;;;;;;3.70;2.13;;;;;;;17.60;nan;101860.56;5008699;28;20109;-74
2022/04/16 09:29:17;;;;;;;2.42;1.45;;;;;;;17.00;nan;101855.41;5007605;28;20053;-73
2022/04/16 09:31:48;;;;;;;2.33;1.70;;;;;;;16.77;nan;101858.63;5010005;28;20037;-73
2022/04/16 09:34:21;;;;;;;2.17;1.60;;;;;;;16.15;nan;101866.75;5009972;28;20577;-73
2022/04/16 09:36:47;;;;;;;3.10;2.05;;;;;;;16.29;nan;101868.84;5008821;28;20064;-73
2022/04/16 09:39:13;;;;;;;3.00;1.70;;;;;;;16.84;nan;101864.19;5007651;28;20073;-73
2022/04/16 09:41:46;;;;;;;2.60;1.83;;;;;;;16.75;nan;101863.28;5006646;28;20034;-73
2022/04/16 09:44:18;;;;;;;3.28;2.08;;;;;;;16.42;nan;101865.78;5010264;28;20054;-73
2022/04/16 09:46:45;;;;;;;3.28;2.05;;;;;;;16.10;nan;101863.72;5007831;28;20093;-73
2022/04/16 09:49:12;;;;;;;2.65;1.98;;;;;;;15.83;nan;101862.84;5004176;28;20064;-73
2022/04/16 09:51:41;;;;;;;3.75;2.28;;;;;;;15.65;nan;101859.31;5006879;28;20042;-73
2022/04/16 09:54:06;;;;;;;3.92;2.40;;;;;;;16.08;nan;101861.19;4989249;28;20618;-74
2022/04/16 09:56:40;;;;;;;3.30;2.00;;;;;;;17.88;nan;101862.97;5006951;28;20113;-73
2022/04/16 09:59:12;;;;;;;3.42;2.22;;;;;;;17.31;nan;101877.06;5006444;28;20045;-73
2022/04/16 10:01:38;;;;;;;2.90;2.00;;;;;;;16.67;nan;101874.75;5005450;28;20117;-73
2022/04/16 10:04:06;;;;;;;2.90;1.90;;;;;;;16.59;nan;101877.41;5004754;28;20141;-73
2022/04/16 10:06:32;;;;;;;4.05;2.45;;;;;;;16.92;nan;101881.09;5006685;28;20037;-73
2022/04/16 10:09:00;;;;;;;2.95;1.95;;;;;;;16.54;nan;101879.69;4989136;28;20034;-73
2022/04/16 10:14:43;;;;;;;3.05;1.90;;;;;;;18.67;nan;101875.56;5006725;28;20060;-73
2022/04/16 10:17:11;;;;;;;3.08;1.90;;;;;;;18.51;nan;101874.78;4982417;28;20046;-74
2022/04/16 10:19:38;;;;;;;3.22;1.98;;;;;;;19.71;nan;101878.09;5008953;28;20133;-74
2022/04/16 10:22:04;;;;;;;3.38;2.20;;;;;;;19.25;nan;101875.34;5007871;28;20042;-73
2022/04/16 10:24:29;;;;;;;2.70;1.77;;;;;;;20.41;nan;101863.56;5009577;28;20036;-73
2022/04/16 10:27:03;;;;;;;2.40;1.67;;;;;;;20.89;nan;101869.41;5008607;28;20042;-73
2022/04/16 10:29:37;;;;;;;3.10;2.10;;;;;;;21.70;nan;101879.25;5002225;28;20045;-74
2022/04/16 10:32:13;;;;;;;3.38;2.20;;;;;;;22.51;nan;101870.81;5005752;28;20041;-74
2022/04/16 10:34:40;;;;;;;3.92;1.95;;;;;;;23.71;nan;101870.19;5002195;28;20325;-73
2022/04/16 10:37:07;;;;;;;3.05;1.67;;;;;;;23.80;nan;101876.28;5004896;28;20088;-74
2022/04/16 10:39:35;;;;;;;2.13;1.40;;;;;;;24.61;nan;101871.66;5004951;28;20096;-74
2022/04/16 10:42:02;;;;;;;2.53;1.58;;;;;;;23.67;nan;101874.38;5005253;28;20121;-73
2022/04/16 10:44:31;;;;;;;1.83;1.33;;;;;;;22.93;nan;101874.31;5006155;28;20030;-74
2022/04/16 10:46:59;;;;;;;4.50;1.70;;;;;;;24.25;nan;101870.25;4986785;28;20038;-73
2022/04/16 10:49:27;;;;;;;2.58;1.75;;;;;;;24.92;nan;101865.53;5010252;28;20455;-74
2022/04/16 10:51:55;;;;;;;2.55;1.65;;;;;;;24.59;nan;101853.75;5009305;28;20030;-74
2022/04/16 10:54:32;;;;;;;2.28;1.50;;;;;;;24.37;nan;101861.28;5008519;28;20411;-73
2022/04/16 10:56:59;;;;;;;2.63;1.25;;;;;;;24.63;nan;101859.59;5009564;28;20411;-73
2022/04/16 10:59:41;;;;;;;2.08;1.30;;;;;;;24.86;nan;101852.84;5010102;28;20049;-73
2022/04/16 11:02:22;;;;;;;3.83;1.67;;;;;;;24.71;nan;101859.34;5008332;28;20542;-73
2022/04/16 11:05:14;;;;;;;;;;;;;;;24.28;nan;101851.72;4991415;28;20034;-72
2022/04/16 11:07:41;;;;;;;2.65;1.40;;;;;;;24.58;nan;101862.94;5002383;28;20400;-73
2022/04/16 11:10:11;;;;;;;3.55;1.38;;;;;;;24.11;nan;101848.63;5007581;28;20049;-73
2022/04/16 11:12:40;;;;;;;3.17;1.70;;;;;;;23.87;nan;101860.91;5008315;28;20121;-72
2022/04/16 11:15:15;;;;;;;2.00;1.30;;;;;;;24.23;nan;101846.13;5009296;28;20160;-72
2022/04/16 11:17:40;;;;;;;1.98;1.20;;;;;;;24.96;nan;101842.41;5011693;28;20038;-73
2022/04/16 11:20:07;;;;;;;1.90;1.05;;;;;;;25.35;nan;101845.97;5011232;28;20081;-73
2022/04/16 11:22:33;;;;;;;2.00;1.30;;;;;;;25.60;nan;101838.69;5011663;28;20026;-73
2022/04/16 11:24:59;;;;;;;2.28;1.27;;;;;;;26.79;nan;101841.34;5011642;28;20037;-73
2022/04/16 11:36:09;;;;;;;2.10;1.20;;;;;;;26.96;nan;101836.09;5010661;28;20049;-72
2022/04/16 11:38:40;;;;;;;2.28;1.20;;;;;;;27.46;nan;101832.25;5011976;28;20479;-73
2022/04/16 11:41:08;;;;;;;1.92;1.50;;;;;;;27.80;nan;101838.84;5010754;28;20026;-73
2022/04/16 11:43:38;;;;;;;2.38;1.40;;;;;;;27.53;nan;101833.03;5007790;28;20033;-73
2022/04/16 11:46:11;;;;;;;1.88;1.30;;;;;;;28.82;nan;101839.47;5008913;28;20041;-73
2022/04/16 11:48:36;;;;;;;2.28;1.20;;;;;;;28.57;nan;101837.91;5006818;28;20041;-73
2022/04/16 11:51:02;;;;;;;1.90;1.30;;;;;;;28.32;nan;101843.59;5008968;28;20380;-73
2022/04/16 11:53:27;;;;;;;2.03;1.20;;;;;;;28.65;nan;101837.53;5010079;28;20080;-73
2022/04/16 11:55:52;;;;;;;2.17;1.43;;;;;;;27.61;nan;101840.81;5007846;28;20601;-72
2022/04/16 11:58:25;;;;;;;1.70;1.30;;;;;;;27.01;nan;101849.00;5006837;28;20343;-73
2022/04/16 12:00:54;;;;;;;2.05;1.48;;;;;;;26.53;nan;101844.31;5009943;28;20133;-72
2022/04/16 12:03:20;;;;;;;2.58;1.40;;;;;;;25.24;nan;101841.22;5009133;28;20042;-73
2022/04/16 12:05:48;;;;;;;3.20;1.40;;;;;;;24.70;nan;101837.94;5009532;28;20034;-73
2022/04/16 12:08:16;;;;;;;2.10;1.40;;;;;;;23.47;nan;101824.91;5009012;28;20038;-73
2022/04/16 12:10:45;;;;;;;3.10;1.30;;;;;;;21.84;nan;101822.63;5009962;28;20041;-72